sensor_id;sensor_type;location;lat;lon;timestamp;pressure;altitude;pressure_sealevel;temperature;humidity
79309;BME280;68767;53.078;7.386;2023-04-15T00:00:56;101202.66;;;5.78;82.97
79309;BME280;68767;53.078;7.386;2023-04-15T00:03:23;101197.63;;;5.77;83.48
79309;BME280;68767;53.078;7.386;2023-04-15T00:05:50;101198.72;;;5.71;82.79
79309;BME280;68767;53.078;7.386;2023-04-15T00:08:17;101200.91;;;5.63;83.85
79309;BME280;68767;53.078;7.386;2023-04-15T00:10:45;101201.44;;;5.66;83.50
79309;BME280;68767;53.078;7.386;2023-04-15T00:13:12;101204.63;;;5.62;84.22
79309;BME280;68767;53.078;7.386;2023-04-15T00:15:39;101204.09;;;5.60;83.50
79309;BME280;68767;53.078;7.386;2023-04-15T00:18:06;101204.38;;;5.59;83.62
79309;BME280;68767;53.078;7.386;2023-04-15T00:20:34;101200.94;;;5.53;83.99
79309;BME280;68767;53.078;7.386;2023-04-15T00:23:01;101197.47;;;5.53;83.82
79309;BME280;68767;53.078;7.386;2023-04-15T00:25:30;101196.69;;;5.52;83.77
79309;BME280;68767;53.078;7.386;2023-04-15T00:27:57;101196.19;;;5.45;83.72
79309;BME280;68767;53.078;7.386;2023-04-15T00:30:23;101191.41;;;5.42;84.08
79309;BME280;68767;53.078;7.386;2023-04-15T00:32:52;101194.34;;;5.41;84.07
79309;BME280;68767;53.078;7.386;2023-04-15T00:35:20;101191.69;;;5.35;84.42
79309;BME280;68767;53.078;7.386;2023-04-15T00:37:49;101199.16;;;5.33;84.96
79309;BME280;68767;53.078;7.386;2023-04-15T00:40:18;101197.84;;;5.26;85.11
79309;BME280;68767;53.078;7.386;2023-04-15T00:42:46;101197.63;;;5.12;85.81
79309;BME280;68767;53.078;7.386;2023-04-15T00:45:13;101191.78;;;5.10;85.45
79309;BME280;68767;53.078;7.386;2023-04-15T00:47:42;101205.94;;;5.05;85.89
79309;BME280;68767;53.078;7.386;2023-04-15T00:50:11;101208.59;;;5.05;85.59
79309;BME280;68767;53.078;7.386;2023-04-15T00:52:39;101210.47;;;5.00;85.50
79309;BME280;68767;53.078;7.386;2023-04-15T00:55:07;101208.06;;;4.98;85.85
79309;BME280;68767;53.078;7.386;2023-04-15T00:57:34;101216.34;;;4.92;86.06
79309;BME280;68767;53.078;7.386;2023-04-15T01:00:02;101201.16;;;4.92;86.23
79309;BME280;68767;53.078;7.386;2023-04-15T01:02:31;101213.66;;;4.92;86.31
79309;BME280;68767;53.078;7.386;2023-04-15T01:05:01;101204.09;;;4.86;86.83
79309;BME280;68767;53.078;7.386;2023-04-15T01:07:28;101207.03;;;4.84;86.37
79309;BME280;68767;53.078;7.386;2023-04-15T01:09:55;101207.03;;;4.84;86.18
79309;BME280;68767;53.078;7.386;2023-04-15T01:12:23;101207.03;;;4.79;86.41
79309;BME280;68767;53.078;7.386;2023-04-15T01:14:55;101210.22;;;4.76;87.08
79309;BME280;68767;53.078;7.386;2023-04-15T01:17:23;101206.78;;;4.75;87.08
79309;BME280;68767;53.078;7.386;2023-04-15T01:19:51;101211.56;;;4.68;86.78
79309;BME280;68767;53.078;7.386;2023-04-15T01:22:18;101213.44;;;4.63;87.16
79309;BME280;68767;53.078;7.386;2023-04-15T01:24:54;101217.97;;;4.62;87.73
79309;BME280;68767;53.078;7.386;2023-04-15T01:27:29;101211.31;;;4.65;87.43
79309;BME280;68767;53.078;7.386;2023-04-15T01:29:56;101209.44;;;4.60;87.78
79309;BME280;68767;53.078;7.386;2023-04-15T01:32:24;101223.28;;;4.52;87.92
79309;BME280;68767;53.078;7.386;2023-04-15T01:34:51;101215.84;;;4.49;88.14
79309;BME280;68767;53.078;7.386;2023-04-15T01:37:21;101222.75;;;4.50;87.95
79309;BME280;68767;53.078;7.386;2023-04-15T01:39:49;101218.25;;;4.50;87.94
79309;BME280;68767;53.078;7.386;2023-04-15T01:42:17;101221.44;;;4.47;88.20
79309;BME280;68767;53.078;7.386;2023-04-15T01:44:44;101218.50;;;4.44;88.23
79309;BME280;68767;53.078;7.386;2023-04-15T01:47:10;101216.09;;;4.37;88.55
79309;BME280;68767;53.078;7.386;2023-04-15T01:49:38;101213.47;;;4.32;88.67
79309;BME280;68767;53.078;7.386;2023-04-15T01:52:05;101213.47;;;4.32;88.74
79309;BME280;68767;53.078;7.386;2023-04-15T01:54:32;101212.91;;;4.30;88.83
79309;BME280;68767;53.078;7.386;2023-04-15T01:56:59;101214.75;;;4.30;89.17
79309;BME280;68767;53.078;7.386;2023-04-15T01:59:25;101217.19;;;4.31;88.91
79309;BME280;68767;53.078;7.386;2023-04-15T02:01:53;101210.00;;;4.32;88.69
79309;BME280;68767;53.078;7.386;2023-04-15T02:04:20;101218.75;;;4.27;89.21
79309;BME280;68767;53.078;7.386;2023-04-15T02:06:47;101214.50;;;4.26;88.86
79309;BME280;68767;53.078;7.386;2023-04-15T02:09:14;101223.81;;;4.29;89.23
79309;BME280;68767;53.078;7.386;2023-04-15T02:11:44;101224.34;;;4.26;89.27
79309;BME280;68767;53.078;7.386;2023-04-15T02:14:11;101209.47;;;4.25;89.32
79309;BME280;68767;53.078;7.386;2023-04-15T02:16:38;101212.63;;;4.21;89.07
79309;BME280;68767;53.078;7.386;2023-04-15T02:19:06;101220.91;;;4.25;89.42
79309;BME280;68767;53.078;7.386;2023-04-15T02:21:36;101225.13;;;4.16;89.39
79309;BME280;68767;53.078;7.386;2023-04-15T02:24:03;101222.19;;;4.12;90.01
79309;BME280;68767;53.078;7.386;2023-04-15T02:26:30;101222.47;;;4.16;89.87
79309;BME280;68767;53.078;7.386;2023-04-15T02:28:59;101223.25;;;4.11;90.00
79309;BME280;68767;53.078;7.386;2023-04-15T02:31:26;101228.06;;;4.09;89.71
79309;BME280;68767;53.078;7.386;2023-04-15T02:33:53;101221.66;;;4.05;89.62
79309;BME280;68767;53.078;7.386;2023-04-15T02:36:20;101230.69;;;4.04;90.26
79309;BME280;68767;53.078;7.386;2023-04-15T02:38:47;101233.34;;;4.04;90.03
79309;BME280;68767;53.078;7.386;2023-04-15T02:41:15;101235.22;;;4.04;90.60
79309;BME280;68767;53.078;7.386;2023-04-15T02:43:44;101231.75;;;4.03;90.07
79309;BME280;68767;53.078;7.386;2023-04-15T02:46:12;101236.56;;;4.06;89.77
79309;BME280;68767;53.078;7.386;2023-04-15T02:48:40;101237.34;;;4.02;90.00
79309;BME280;68767;53.078;7.386;2023-04-15T02:51:21;101237.59;;;3.95;89.97
79309;BME280;68767;53.078;7.386;2023-04-15T02:53:48;101246.88;;;3.87;90.70
79309;BME280;68767;53.078;7.386;2023-04-15T02:56:15;101238.38;;;3.85;90.60
79309;BME280;68767;53.078;7.386;2023-04-15T02:58:43;101235.19;;;3.83;90.42
79309;BME280;68767;53.078;7.386;2023-04-15T03:01:11;101239.97;;;3.81;90.60
79309;BME280;68767;53.078;7.386;2023-04-15T03:03:39;101240.16;;;3.70;90.82
79309;BME280;68767;53.078;7.386;2023-04-15T03:06:07;101232.69;;;3.61;90.69
79309;BME280;68767;53.078;7.386;2023-04-15T03:08:35;101230.84;;;3.62;91.33
79309;BME280;68767;53.078;7.386;2023-04-15T03:11:03;101235.63;;;3.60;91.26
79309;BME280;68767;53.078;7.386;2023-04-15T03:13:31;101240.13;;;3.59;91.33
79309;BME280;68767;53.078;7.386;2023-04-15T03:16:03;101240.66;;;3.61;91.20
79309;BME280;68767;53.078;7.386;2023-04-15T03:18:31;101241.69;;;3.55;91.39
79309;BME280;68767;53.078;7.386;2023-04-15T03:21:01;101239.03;;;3.50;91.44
79309;BME280;68767;53.078;7.386;2023-04-15T03:23:31;101243.03;;;3.48;90.72
79309;BME280;68767;53.078;7.386;2023-04-15T03:26:03;101238.44;;;3.38;91.07
79309;BME280;68767;53.078;7.386;2023-04-15T03:28:32;101241.66;;;3.40;91.10
79309;BME280;68767;53.078;7.386;2023-04-15T03:30:59;101236.88;;;3.42;91.07
79309;BME280;68767;53.078;7.386;2023-04-15T03:33:27;101240.81;;;3.34;91.17
79309;BME280;68767;53.078;7.386;2023-04-15T03:35:53;101241.09;;;3.33;91.26
79309;BME280;68767;53.078;7.386;2023-04-15T03:38:20;101236.53;;;3.28;91.30
79309;BME280;68767;53.078;7.386;2023-04-15T03:40:47;101248.25;;;3.32;92.43
79309;BME280;68767;53.078;7.386;2023-04-15T03:43:14;101237.06;;;3.25;91.91
79309;BME280;68767;53.078;7.386;2023-04-15T03:45:41;101244.25;;;3.25;91.87
79309;BME280;68767;53.078;7.386;2023-04-15T03:48:08;101248.44;;;3.21;92.21
79309;BME280;68767;53.078;7.386;2023-04-15T03:50:43;101237.81;;;3.21;92.03
79309;BME280;68767;53.078;7.386;2023-04-15T03:53:10;101249.81;;;3.28;92.49
79309;BME280;68767;53.078;7.386;2023-04-15T03:55:37;101252.75;;;3.27;92.30
79309;BME280;68767;53.078;7.386;2023-04-15T03:58:04;101260.44;;;3.28;91.99
79309;BME280;68767;53.078;7.386;2023-04-15T04:00:31;101258.56;;;3.24;92.37
79309;BME280;68767;53.078;7.386;2023-04-15T04:02:58;101263.56;;;3.15;92.64
79309;BME280;68767;53.078;7.386;2023-04-15T04:05:25;101261.72;;;3.21;92.78
79309;BME280;68767;53.078;7.386;2023-04-15T04:07:51;101253.31;;;3.34;92.80
79309;BME280;68767;53.078;7.386;2023-04-15T04:10:18;101246.66;;;3.31;93.11
79309;BME280;68767;53.078;7.386;2023-04-15T04:12:45;101251.19;;;3.36;93.31
79309;BME280;68767;53.078;7.386;2023-04-15T04:15:12;101248.25;;;3.32;93.50
79309;BME280;68767;53.078;7.386;2023-04-15T04:17:39;101253.03;;;3.35;93.36
79309;BME280;68767;53.078;7.386;2023-04-15T04:20:06;101245.59;;;3.32;93.33
79309;BME280;68767;53.078;7.386;2023-04-15T04:22:40;101251.97;;;3.31;93.48
79309;BME280;68767;53.078;7.386;2023-04-15T04:25:07;101254.91;;;3.35;93.81
79309;BME280;68767;53.078;7.386;2023-04-15T04:27:35;101248.00;;;3.34;93.83
79309;BME280;68767;53.078;7.386;2023-04-15T04:30:03;101244.31;;;3.40;93.52
79309;BME280;68767;53.078;7.386;2023-04-15T04:32:30;101255.19;;;3.38;94.04
79309;BME280;68767;53.078;7.386;2023-04-15T04:34:57;101251.50;;;3.40;93.35
79309;BME280;68767;53.078;7.386;2023-04-15T04:37:24;101260.25;;;3.45;93.75
79309;BME280;68767;53.078;7.386;2023-04-15T04:39:51;101265.25;;;3.36;93.13
79309;BME280;68767;53.078;7.386;2023-04-15T04:42:18;101264.50;;;3.46;94.19
79309;BME280;68767;53.078;7.386;2023-04-15T04:44:45;101262.41;;;3.48;93.58
79309;BME280;68767;53.078;7.386;2023-04-15T04:47:12;101263.75;;;3.51;93.83
79309;BME280;68767;53.078;7.386;2023-04-15T04:49:39;101260.38;;;3.65;93.90
79309;BME280;68767;53.078;7.386;2023-04-15T04:52:06;101263.81;;;3.71;93.99
79309;BME280;68767;53.078;7.386;2023-04-15T04:54:33;101260.13;;;3.77;93.89
79309;BME280;68767;53.078;7.386;2023-04-15T04:57:00;101264.69;;;3.82;93.34
79309;BME280;68767;53.078;7.386;2023-04-15T04:59:27;101263.84;;;3.76;93.14
79309;BME280;68767;53.078;7.386;2023-04-15T05:01:54;101268.94;;;3.83;93.01
79309;BME280;68767;53.078;7.386;2023-04-15T05:04:22;101273.72;;;3.86;92.93
79309;BME280;68767;53.078;7.386;2023-04-15T05:06:49;101273.22;;;3.89;92.85
79309;BME280;68767;53.078;7.386;2023-04-15T05:09:16;101272.66;;;3.87;93.23
79309;BME280;68767;53.078;7.386;2023-04-15T05:11:42;101278.00;;;3.97;93.62
79309;BME280;68767;53.078;7.386;2023-04-15T05:14:09;101275.09;;;4.04;93.48
79309;BME280;68767;53.078;7.386;2023-04-15T05:16:36;101278.53;;;4.04;93.29
79309;BME280;68767;53.078;7.386;2023-04-15T05:19:03;101291.09;;;4.14;93.53
79309;BME280;68767;53.078;7.386;2023-04-15T05:21:30;101295.06;;;4.21;93.63
79309;BME280;68767;53.078;7.386;2023-04-15T05:23:57;101297.22;;;4.30;93.64
79309;BME280;68767;53.078;7.386;2023-04-15T05:26:24;101295.94;;;4.47;93.61
79309;BME280;68767;53.078;7.386;2023-04-15T05:28:53;101299.66;;;4.57;93.15
79309;BME280;68767;53.078;7.386;2023-04-15T05:31:19;101302.59;;;4.65;92.82
79309;BME280;68767;53.078;7.386;2023-04-15T05:33:46;101311.91;;;4.78;92.83
79309;BME280;68767;53.078;7.386;2023-04-15T05:36:13;101300.72;;;4.91;92.14
79309;BME280;68767;53.078;7.386;2023-04-15T05:38:40;101311.38;;;5.01;91.68
79309;BME280;68767;53.078;7.386;2023-04-15T05:41:07;101315.34;;;5.14;91.70
79309;BME280;68767;53.078;7.386;2023-04-15T05:43:34;101316.94;;;5.20;91.34
79309;BME280;68767;53.078;7.386;2023-04-15T05:46:01;101320.41;;;5.31;91.09
79309;BME280;68767;53.078;7.386;2023-04-15T05:48:28;101319.84;;;5.39;90.28
79309;BME280;68767;53.078;7.386;2023-04-15T05:50:55;101326.47;;;5.57;90.11
79309;BME280;68767;53.078;7.386;2023-04-15T05:53:22;101328.56;;;5.65;90.29
79309;BME280;68767;53.078;7.386;2023-04-15T05:55:49;101327.50;;;5.66;89.89
79309;BME280;68767;53.078;7.386;2023-04-15T05:58:16;101338.41;;;5.75;89.67
79309;BME280;68767;53.078;7.386;2023-04-15T06:00:43;101344.75;;;5.84;89.36
79309;BME280;68767;53.078;7.386;2023-04-15T06:03:10;101349.28;;;5.94;89.06
79309;BME280;68767;53.078;7.386;2023-04-15T06:05:37;101355.63;;;6.03;88.94
79309;BME280;68767;53.078;7.386;2023-04-15T06:08:04;101350.56;;;6.06;88.53
79309;BME280;68767;53.078;7.386;2023-04-15T06:10:31;101354.00;;;6.12;88.07
79309;BME280;68767;53.078;7.386;2023-04-15T06:13:02;101351.31;;;6.17;88.12
79309;BME280;68767;53.078;7.386;2023-04-15T06:15:30;101349.13;;;6.29;87.18
79309;BME280;68767;53.078;7.386;2023-04-15T06:17:57;101351.47;;;6.41;87.31
79309;BME280;68767;53.078;7.386;2023-04-15T06:20:24;101352.97;;;6.52;86.82
79309;BME280;68767;53.078;7.386;2023-04-15T06:22:51;101369.50;;;6.59;86.23
79309;BME280;68767;53.078;7.386;2023-04-15T06:25:18;101364.94;;;6.60;86.43
79309;BME280;68767;53.078;7.386;2023-04-15T06:27:45;101370.78;;;6.67;86.12
79309;BME280;68767;53.078;7.386;2023-04-15T06:30:12;101369.91;;;6.76;86.09
79309;BME280;68767;53.078;7.386;2023-04-15T06:32:39;101366.63;;;6.90;85.78
79309;BME280;68767;53.078;7.386;2023-04-15T06:35:06;101374.06;;;6.93;85.84
79309;BME280;68767;53.078;7.386;2023-04-15T06:37:33;101367.84;;;7.02;85.55
79309;BME280;68767;53.078;7.386;2023-04-15T06:40:01;101363.53;;;7.12;85.68
79309;BME280;68767;53.078;7.386;2023-04-15T06:42:27;101365.84;;;7.18;84.54
79309;BME280;68767;53.078;7.386;2023-04-15T06:44:54;101363.41;;;7.22;84.64
79309;BME280;68767;53.078;7.386;2023-04-15T06:47:21;101374.06;;;7.27;84.96
79309;BME280;68767;53.078;7.386;2023-04-15T06:49:48;101380.00;;;7.48;84.35
79309;BME280;68767;53.078;7.386;2023-04-15T06:52:16;101374.88;;;7.51;83.81
79309;BME280;68767;53.078;7.386;2023-04-15T06:54:43;101387.47;;;7.51;83.61
79309;BME280;68767;53.078;7.386;2023-04-15T06:57:10;101384.47;;;7.57;84.16
79309;BME280;68767;53.078;7.386;2023-04-15T06:59:37;101380.16;;;7.62;83.22
79309;BME280;68767;53.078;7.386;2023-04-15T07:02:04;101387.81;;;7.68;83.03
79309;BME280;68767;53.078;7.386;2023-04-15T07:04:30;101388.56;;;7.74;83.23
79309;BME280;68767;53.078;7.386;2023-04-15T07:06:58;101384.03;;;7.74;83.82
79309;BME280;68767;53.078;7.386;2023-04-15T07:09:28;101386.03;;;7.87;82.56
79309;BME280;68767;53.078;7.386;2023-04-15T07:11:55;101380.31;;;7.94;82.41
79309;BME280;68767;53.078;7.386;2023-04-15T07:14:22;101385.22;;;7.87;82.91
79309;BME280;68767;53.078;7.386;2023-04-15T07:16:49;101381.19;;;7.89;82.70
79309;BME280;68767;53.078;7.386;2023-04-15T07:19:16;101385.41;;;7.96;83.37
79309;BME280;68767;53.078;7.386;2023-04-15T07:21:43;101396.44;;;7.89;81.85
79309;BME280;68767;53.078;7.386;2023-04-15T07:24:09;101382.81;;;7.85;82.99
79309;BME280;68767;53.078;7.386;2023-04-15T07:26:36;101381.47;;;7.88;82.92
79309;BME280;68767;53.078;7.386;2023-04-15T07:29:03;101390.50;;;7.92;82.04
79309;BME280;68767;53.078;7.386;2023-04-15T07:31:30;101395.47;;;8.04;82.10
79309;BME280;68767;53.078;7.386;2023-04-15T07:33:57;101397.41;;;7.98;82.14
79309;BME280;68767;53.078;7.386;2023-04-15T07:36:24;101398.22;;;8.17;81.10
79309;BME280;68767;53.078;7.386;2023-04-15T07:38:51;101400.28;;;8.26;80.87
79309;BME280;68767;53.078;7.386;2023-04-15T07:41:18;101398.56;;;8.35;81.23
79309;BME280;68767;53.078;7.386;2023-04-15T07:43:46;101401.84;;;8.27;80.95
79309;BME280;68767;53.078;7.386;2023-04-15T07:46:14;101398.91;;;8.28;81.40
79309;BME280;68767;53.078;7.386;2023-04-15T07:48:41;101406.41;;;8.50;80.54
79309;BME280;68767;53.078;7.386;2023-04-15T07:51:08;101402.63;;;8.51;79.48
79309;BME280;68767;53.078;7.386;2023-04-15T07:53:36;101397.38;;;8.65;79.37
79309;BME280;68767;53.078;7.386;2023-04-15T07:56:04;101402.00;;;8.78;78.74
79309;BME280;68767;53.078;7.386;2023-04-15T07:58:31;101400.97;;;8.93;78.92
79309;BME280;68767;53.078;7.386;2023-04-15T08:00:58;101404.41;;;8.80;77.50
79309;BME280;68767;53.078;7.386;2023-04-15T08:03:25;101409.97;;;8.64;78.92
79309;BME280;68767;53.078;7.386;2023-04-15T08:05:52;101409.03;;;8.74;79.16
79309;BME280;68767;53.078;7.386;2023-04-15T08:08:20;101414.31;;;8.79;79.37
79309;BME280;68767;53.078;7.386;2023-04-15T08:10:48;101405.91;;;8.67;79.68
79309;BME280;68767;53.078;7.386;2023-04-15T08:13:18;101411.13;;;8.58;78.81
79309;BME280;68767;53.078;7.386;2023-04-15T08:15:45;101411.06;;;8.63;80.13
79309;BME280;68767;53.078;7.386;2023-04-15T08:18:12;101410.47;;;8.66;78.82
79309;BME280;68767;53.078;7.386;2023-04-15T08:20:39;101419.59;;;8.65;79.63
79309;BME280;68767;53.078;7.386;2023-04-15T08:23:06;101417.28;;;8.78;79.03
79309;BME280;68767;53.078;7.386;2023-04-15T08:25:33;101418.22;;;8.87;78.88
79309;BME280;68767;53.078;7.386;2023-04-15T08:28:03;101409.78;;;8.93;79.16
79309;BME280;68767;53.078;7.386;2023-04-15T08:30:30;101423.50;;;9.11;78.25
79309;BME280;68767;53.078;7.386;2023-04-15T08:32:57;101421.25;;;8.99;77.81
79309;BME280;68767;53.078;7.386;2023-04-15T08:35:24;101415.31;;;9.02;77.38
79309;BME280;68767;53.078;7.386;2023-04-15T08:37:51;101422.84;;;9.00;77.31
79309;BME280;68767;53.078;7.386;2023-04-15T08:40:18;101418.56;;;8.99;77.81
79309;BME280;68767;53.078;7.386;2023-04-15T08:42:48;101419.78;;;9.07;78.06
79309;BME280;68767;53.078;7.386;2023-04-15T08:45:19;101431.81;;;9.09;77.90
79309;BME280;68767;53.078;7.386;2023-04-15T08:47:51;101435.81;;;9.12;77.62
79309;BME280;68767;53.078;7.386;2023-04-15T08:50:21;101431.03;;;8.90;77.92
79309;BME280;68767;53.078;7.386;2023-04-15T08:52:53;101429.66;;;8.92;78.68
79309;BME280;68767;53.078;7.386;2023-04-15T08:55:20;101433.19;;;9.07;77.66
79309;BME280;68767;53.078;7.386;2023-04-15T08:57:48;101427.47;;;9.13;77.83
79309;BME280;68767;53.078;7.386;2023-04-15T09:00:16;101441.00;;;9.22;77.87
79309;BME280;68767;53.078;7.386;2023-04-15T09:02:43;101431.88;;;9.23;77.50
79309;BME280;68767;53.078;7.386;2023-04-15T09:05:11;101433.03;;;9.17;77.33
79309;BME280;68767;53.078;7.386;2023-04-15T09:07:38;101441.13;;;9.31;76.99
79309;BME280;68767;53.078;7.386;2023-04-15T09:10:05;101449.59;;;9.38;76.46
79309;BME280;68767;53.078;7.386;2023-04-15T09:12:36;101437.94;;;9.28;78.00
79309;BME280;68767;53.078;7.386;2023-04-15T09:15:03;101449.91;;;9.36;78.93
79309;BME280;68767;53.078;7.386;2023-04-15T09:17:32;101453.66;;;9.35;79.42
79309;BME280;68767;53.078;7.386;2023-04-15T09:20:10;101452.47;;;9.41;77.84
79309;BME280;68767;53.078;7.386;2023-04-15T09:22:40;101454.28;;;9.46;78.95
79309;BME280;68767;53.078;7.386;2023-04-15T09:25:28;101457.84;;;9.41;79.25
79309;BME280;68767;53.078;7.386;2023-04-15T09:28:00;101452.53;;;9.22;79.30
79309;BME280;68767;53.078;7.386;2023-04-15T09:30:28;101464.47;;;9.30;80.10
79309;BME280;68767;53.078;7.386;2023-04-15T09:32:56;101461.53;;;9.45;80.10
79309;BME280;68767;53.078;7.386;2023-04-15T09:35:25;101467.09;;;9.49;81.31
79309;BME280;68767;53.078;7.386;2023-04-15T09:37:53;101461.78;;;9.30;79.08
79309;BME280;68767;53.078;7.386;2023-04-15T09:43:00;101472.75;;;9.15;82.02
79309;BME280;68767;53.078;7.386;2023-04-15T09:45:32;101471.09;;;9.19;83.08
79309;BME280;68767;53.078;7.386;2023-04-15T09:50:42;101476.44;;;9.19;82.80
79309;BME280;68767;53.078;7.386;2023-04-15T09:53:10;101475.06;;;9.21;82.81
79309;BME280;68767;53.078;7.386;2023-04-15T09:55:38;101476.13;;;9.39;82.25
79309;BME280;68767;53.078;7.386;2023-04-15T09:58:08;101467.28;;;9.39;82.16
79309;BME280;68767;53.078;7.386;2023-04-15T10:00:43;101471.28;;;9.22;80.84
79309;BME280;68767;53.078;7.386;2023-04-15T10:03:10;101481.38;;;9.12;82.16
79309;BME280;68767;53.078;7.386;2023-04-15T10:05:38;101481.88;;;8.95;82.24
79309;BME280;68767;53.078;7.386;2023-04-15T10:08:08;101480.66;;;8.87;84.16
79309;BME280;68767;53.078;7.386;2023-04-15T10:10:35;101479.06;;;9.05;82.98
79309;BME280;68767;53.078;7.386;2023-04-15T10:13:02;101472.75;;;9.15;84.14
79309;BME280;68767;53.078;7.386;2023-04-15T10:15:30;101472.66;;;9.20;83.19
79309;BME280;68767;53.078;7.386;2023-04-15T10:17:59;101475.34;;;9.20;83.40
79309;BME280;68767;53.078;7.386;2023-04-15T10:20:27;101481.28;;;9.17;83.02
79309;BME280;68767;53.078;7.386;2023-04-15T10:22:55;101482.81;;;9.23;83.45
79309;BME280;68767;53.078;7.386;2023-04-15T10:25:25;101489.41;;;9.12;82.73
79309;BME280;68767;53.078;7.386;2023-04-15T10:27:53;101491.22;;;8.97;83.81
79309;BME280;68767;53.078;7.386;2023-04-15T10:30:20;101492.38;;;8.91;84.21
79309;BME280;68767;53.078;7.386;2023-04-15T10:32:48;101496.94;;;8.91;86.66
79309;BME280;68767;53.078;7.386;2023-04-15T10:35:16;101492.50;;;9.00;85.39
79309;BME280;68767;53.078;7.386;2023-04-15T10:37:44;101499.47;;;9.01;85.25
79309;BME280;68767;53.078;7.386;2023-04-15T10:40:25;101497.38;;;8.98;85.34
79309;BME280;68767;53.078;7.386;2023-04-15T10:42:54;101493.97;;;8.92;84.59
79309;BME280;68767;53.078;7.386;2023-04-15T10:45:24;101498.75;;;8.95;86.08
79309;BME280;68767;53.078;7.386;2023-04-15T10:47:57;101496.44;;;8.89;87.00
79309;BME280;68767;53.078;7.386;2023-04-15T10:50:26;101493.91;;;8.79;85.46
79309;BME280;68767;53.078;7.386;2023-04-15T10:52:55;101493.09;;;8.78;86.85
79309;BME280;68767;53.078;7.386;2023-04-15T10:55:26;101502.50;;;8.76;86.44
79309;BME280;68767;53.078;7.386;2023-04-15T10:57:58;101501.34;;;8.82;86.70
79309;BME280;68767;53.078;7.386;2023-04-15T11:00:28;101501.94;;;8.79;85.50
79309;BME280;68767;53.078;7.386;2023-04-15T11:02:57;101507.28;;;8.79;88.24
79309;BME280;68767;53.078;7.386;2023-04-15T11:08:11;101507.84;;;8.76;87.46
79309;BME280;68767;53.078;7.386;2023-04-15T11:13:15;101520.28;;;8.66;87.21
79309;BME280;68767;53.078;7.386;2023-04-15T11:15:46;101518.53;;;8.57;86.61
79309;BME280;68767;53.078;7.386;2023-04-15T11:20:52;101515.03;;;8.37;87.78
79309;BME280;68767;53.078;7.386;2023-04-15T11:23:42;101517.41;;;8.39;89.65
79309;BME280;68767;53.078;7.386;2023-04-15T11:26:13;101529.09;;;8.48;89.22
79309;BME280;68767;53.078;7.386;2023-04-15T11:28:42;101515.81;;;8.38;89.09
79309;BME280;68767;53.078;7.386;2023-04-15T11:31:16;101525.19;;;8.59;90.43
79309;BME280;68767;53.078;7.386;2023-04-15T11:36:24;101533.81;;;8.56;89.11
79309;BME280;68767;53.078;7.386;2023-04-15T11:38:53;101531.59;;;8.63;89.14
79309;BME280;68767;53.078;7.386;2023-04-15T11:41:21;101532.91;;;8.42;89.39
79309;BME280;68767;53.078;7.386;2023-04-15T11:43:49;101532.34;;;8.45;90.13
79309;BME280;68767;53.078;7.386;2023-04-15T11:46:16;101531.47;;;8.50;89.97
79309;BME280;68767;53.078;7.386;2023-04-15T11:48:44;101532.59;;;8.43;90.43
79309;BME280;68767;53.078;7.386;2023-04-15T11:51:13;101538.78;;;8.44;89.58
79309;BME280;68767;53.078;7.386;2023-04-15T11:53:42;101535.28;;;8.43;90.53
79309;BME280;68767;53.078;7.386;2023-04-15T11:56:15;101547.44;;;8.36;89.86
79309;BME280;68767;53.078;7.386;2023-04-15T11:58:42;101543.22;;;8.25;90.58
79309;BME280;68767;53.078;7.386;2023-04-15T12:01:10;101539.41;;;8.31;91.17
79309;BME280;68767;53.078;7.386;2023-04-15T12:03:41;101542.38;;;8.29;90.22
79309;BME280;68767;53.078;7.386;2023-04-15T12:06:22;101543.97;;;8.30;91.07
79309;BME280;68767;53.078;7.386;2023-04-15T12:11:50;101548.91;;;8.47;90.73
79309;BME280;68767;53.078;7.386;2023-04-15T12:14:20;101549.38;;;8.54;91.32
79309;BME280;68767;53.078;7.386;2023-04-15T12:16:50;101549.41;;;8.49;90.70
79309;BME280;68767;53.078;7.386;2023-04-15T12:19:37;101553.53;;;8.41;90.00
79309;BME280;68767;53.078;7.386;2023-04-15T12:22:09;101556.38;;;8.50;90.97
79309;BME280;68767;53.078;7.386;2023-04-15T12:24:37;101557.91;;;8.56;90.42
79309;BME280;68767;53.078;7.386;2023-04-15T12:27:05;101558.13;;;8.60;90.43
79309;BME280;68767;53.078;7.386;2023-04-15T12:29:35;101562.44;;;8.61;90.58
79309;BME280;68767;53.078;7.386;2023-04-15T12:32:15;101572.59;;;8.59;90.69
79309;BME280;68767;53.078;7.386;2023-04-15T12:37:11;101576.50;;;8.48;90.00
79309;BME280;68767;53.078;7.386;2023-04-15T12:39:41;101579.22;;;8.42;91.20
79309;BME280;68767;53.078;7.386;2023-04-15T12:42:09;101591.41;;;8.25;90.22
79309;BME280;68767;53.078;7.386;2023-04-15T12:44:37;101593.88;;;8.21;91.17
79309;BME280;68767;53.078;7.386;2023-04-15T12:47:06;101597.34;;;8.22;90.93
79309;BME280;68767;53.078;7.386;2023-04-15T12:49:33;101610.22;;;8.20;90.35
79309;BME280;68767;53.078;7.386;2023-04-15T12:52:01;101605.66;;;8.20;91.29
79309;BME280;68767;53.078;7.386;2023-04-15T12:54:29;101608.06;;;8.16;91.25
79309;BME280;68767;53.078;7.386;2023-04-15T12:56:56;101609.44;;;8.14;91.62
79309;BME280;68767;53.078;7.386;2023-04-15T12:59:23;101612.41;;;8.12;91.04
79309;BME280;68767;53.078;7.386;2023-04-15T13:01:52;101617.50;;;8.09;90.84
79309;BME280;68767;53.078;7.386;2023-04-15T13:04:20;101612.47;;;8.02;91.45
79309;BME280;68767;53.078;7.386;2023-04-15T13:06:48;101604.22;;;7.99;91.55
79309;BME280;68767;53.078;7.386;2023-04-15T13:09:15;101619.97;;;8.05;91.93
79309;BME280;68767;53.078;7.386;2023-04-15T13:11:42;101607.66;;;8.04;91.50
79309;BME280;68767;53.078;7.386;2023-04-15T13:14:09;101617.56;;;8.04;92.18
79309;BME280;68767;53.078;7.386;2023-04-15T13:16:39;101624.78;;;8.03;90.95
79309;BME280;68767;53.078;7.386;2023-04-15T13:19:07;101617.38;;;7.95;91.16
79309;BME280;68767;53.078;7.386;2023-04-15T13:21:34;101620.56;;;7.97;91.30
79309;BME280;68767;53.078;7.386;2023-04-15T13:24:02;101624.31;;;7.96;91.63
79309;BME280;68767;53.078;7.386;2023-04-15T13:26:30;101628.31;;;7.99;92.22